sensor_id;sensor_type;location;lat;lon;timestamp;pressure;altitude;pressure_sealevel;temperature;humidity
48968;BME280;46511;53.148;8.204;2023-12-20T00:00:38;101149.00;;;7.07;100.00
48968;BME280;46511;53.148;8.204;2023-12-20T00:03:04;101141.81;;;7.12;100.00
48968;BME280;46511;53.148;8.204;2023-12-20T00:05:31;101137.47;;;7.10;100.00
48968;BME280;46511;53.148;8.204;2023-12-20T00:08:06;101139.84;;;7.18;100.00
48968;BME280;46511;53.148;8.204;2023-12-20T00:10:33;101137.97;;;6.96;100.00
48968;BME280;46511;53.148;8.204;2023-12-20T00:12:59;101142.47;;;6.94;100.00
48968;BME280;46511;53.148;8.204;2023-12-20T00:15:26;101137.72;;;6.79;100.00
48968;BME280;46511;53.148;8.204;2023-12-20T00:17:52;101133.94;;;6.86;100.00
48968;BME280;46511;53.148;8.204;2023-12-20T00:20:18;101131.91;;;6.94;100.00
48968;BME280;46511;53.148;8.204;2023-12-20T00:22:45;101126.81;;;6.88;100.00
48968;BME280;46511;53.148;8.204;2023-12-20T00:25:12;101129.84;;;7.02;100.00
48968;BME280;46511;53.148;8.204;2023-12-20T00:27:38;101124.56;;;6.77;100.00
48968;BME280;46511;53.148;8.204;2023-12-20T00:30:05;101126.03;;;6.86;100.00
48968;BME280;46511;53.148;8.204;2023-12-20T00:32:38;101123.19;;;6.92;100.00
48968;BME280;46511;53.148;8.204;2023-12-20T00:35:09;101113.06;;;7.03;100.00
48968;BME280;46511;53.148;8.204;2023-12-20T00:37:36;101115.53;;;6.84;100.00
48968;BME280;46511;53.148;8.204;2023-12-20T00:40:07;101122.84;;;7.01;100.00
48968;BME280;46511;53.148;8.204;2023-12-20T00:42:34;101126.47;;;7.22;100.00
48968;BME280;46511;53.148;8.204;2023-12-20T00:45:02;101125.09;;;7.12;100.00
48968;BME280;46511;53.148;8.204;2023-12-20T00:47:35;101117.16;;;7.12;100.00
48968;BME280;46511;53.148;8.204;2023-12-20T00:50:02;101117.75;;;7.20;100.00
48968;BME280;46511;53.148;8.204;2023-12-20T00:52:34;101117.19;;;7.10;100.00
48968;BME280;46511;53.148;8.204;2023-12-20T00:55:05;101116.16;;;6.91;100.00
48968;BME280;46511;53.148;8.204;2023-12-20T00:57:32;101103.78;;;6.92;100.00
48968;BME280;46511;53.148;8.204;2023-12-20T01:00:04;101105.72;;;7.35;100.00
48968;BME280;46511;53.148;8.204;2023-12-20T01:02:36;101106.41;;;7.40;100.00
48968;BME280;46511;53.148;8.204;2023-12-20T01:05:02;101101.78;;;7.45;100.00
48968;BME280;46511;53.148;8.204;2023-12-20T01:07:29;101093.56;;;7.31;100.00
48968;BME280;46511;53.148;8.204;2023-12-20T01:09:55;101088.38;;;7.28;100.00
48968;BME280;46511;53.148;8.204;2023-12-20T01:12:21;101087.34;;;7.08;100.00
48968;BME280;46511;53.148;8.204;2023-12-20T01:14:53;101079.28;;;6.88;100.00
48968;BME280;46511;53.148;8.204;2023-12-20T01:17:19;101082.47;;;7.21;100.00
48968;BME280;46511;53.148;8.204;2023-12-20T01:19:50;101087.09;;;6.91;100.00
48968;BME280;46511;53.148;8.204;2023-12-20T01:22:17;101087.69;;;6.99;100.00
48968;BME280;46511;53.148;8.204;2023-12-20T01:24:48;101090.78;;;6.87;100.00
48968;BME280;46511;53.148;8.204;2023-12-20T01:27:20;101091.50;;;6.92;100.00
48968;BME280;46511;53.148;8.204;2023-12-20T01:29:51;101087.06;;;6.93;100.00
48968;BME280;46511;53.148;8.204;2023-12-20T01:32:17;101078.84;;;6.77;100.00
48968;BME280;46511;53.148;8.204;2023-12-20T01:34:49;101076.06;;;6.80;100.00
48968;BME280;46511;53.148;8.204;2023-12-20T01:37:20;101075.06;;;6.84;100.00
48968;BME280;46511;53.148;8.204;2023-12-20T01:39:51;101074.59;;;6.73;100.00
48968;BME280;46511;53.148;8.204;2023-12-20T01:42:23;101080.09;;;6.67;100.00
48968;BME280;46511;53.148;8.204;2023-12-20T01:44:54;101075.00;;;6.61;100.00
48968;BME280;46511;53.148;8.204;2023-12-20T01:47:26;101067.00;;;6.64;100.00
48968;BME280;46511;53.148;8.204;2023-12-20T01:49:53;101060.34;;;6.77;100.00
48968;BME280;46511;53.148;8.204;2023-12-20T01:52:19;101062.47;;;6.91;100.00
48968;BME280;46511;53.148;8.204;2023-12-20T01:54:46;101058.44;;;6.80;100.00
48968;BME280;46511;53.148;8.204;2023-12-20T01:57:19;101054.34;;;6.73;100.00
48968;BME280;46511;53.148;8.204;2023-12-20T01:59:50;101054.09;;;6.79;100.00
48968;BME280;46511;53.148;8.204;2023-12-20T02:02:17;101053.88;;;6.85;100.00
48968;BME280;46511;53.148;8.204;2023-12-20T02:04:44;101051.72;;;6.72;100.00
48968;BME280;46511;53.148;8.204;2023-12-20T02:07:15;101045.47;;;6.98;100.00
48968;BME280;46511;53.148;8.204;2023-12-20T02:09:47;101047.66;;;6.86;100.00
48968;BME280;46511;53.148;8.204;2023-12-20T02:12:13;101048.06;;;6.99;100.00
48968;BME280;46511;53.148;8.204;2023-12-20T02:14:44;101048.94;;;6.76;100.00
48968;BME280;46511;53.148;8.204;2023-12-20T02:17:16;101043.38;;;6.84;100.00
48968;BME280;46511;53.148;8.204;2023-12-20T02:19:43;101038.31;;;7.01;100.00
48968;BME280;46511;53.148;8.204;2023-12-20T02:22:10;101037.75;;;6.93;100.00
48968;BME280;46511;53.148;8.204;2023-12-20T02:24:41;101040.41;;;7.15;100.00
48968;BME280;46511;53.148;8.204;2023-12-20T02:27:08;101034.00;;;6.99;100.00
48968;BME280;46511;53.148;8.204;2023-12-20T02:29:39;101034.75;;;7.02;100.00
48968;BME280;46511;53.148;8.204;2023-12-20T02:32:06;101023.72;;;7.14;100.00
48968;BME280;46511;53.148;8.204;2023-12-20T02:34:32;101024.44;;;7.18;100.00
48968;BME280;46511;53.148;8.204;2023-12-20T02:37:03;101017.19;;;7.01;100.00
48968;BME280;46511;53.148;8.204;2023-12-20T02:39:35;101018.22;;;6.97;100.00
48968;BME280;46511;53.148;8.204;2023-12-20T02:42:06;101026.84;;;7.24;100.00
48968;BME280;46511;53.148;8.204;2023-12-20T02:44:38;101011.53;;;7.10;100.00
48968;BME280;46511;53.148;8.204;2023-12-20T02:47:04;101021.94;;;7.15;100.00
48968;BME280;46511;53.148;8.204;2023-12-20T02:49:35;101014.78;;;6.95;100.00
48968;BME280;46511;53.148;8.204;2023-12-20T02:52:07;101014.38;;;7.28;100.00
48968;BME280;46511;53.148;8.204;2023-12-20T02:54:38;101020.16;;;7.15;100.00
48968;BME280;46511;53.148;8.204;2023-12-20T02:57:10;101016.78;;;7.12;100.00
48968;BME280;46511;53.148;8.204;2023-12-20T02:59:41;101012.00;;;7.22;100.00
48968;BME280;46511;53.148;8.204;2023-12-20T03:02:12;101009.94;;;7.06;100.00
48968;BME280;46511;53.148;8.204;2023-12-20T03:04:44;101006.25;;;7.10;100.00
48968;BME280;46511;53.148;8.204;2023-12-20T03:07:15;101005.66;;;7.26;100.00
48968;BME280;46511;53.148;8.204;2023-12-20T03:09:46;101003.81;;;7.28;100.00
48968;BME280;46511;53.148;8.204;2023-12-20T03:12:18;100992.28;;;7.30;100.00
48968;BME280;46511;53.148;8.204;2023-12-20T03:14:49;100994.34;;;7.22;100.00
48968;BME280;46511;53.148;8.204;2023-12-20T03:17:21;100992.06;;;7.35;100.00
48968;BME280;46511;53.148;8.204;2023-12-20T03:19:47;100988.34;;;7.40;100.00
48968;BME280;46511;53.148;8.204;2023-12-20T03:22:18;100984.81;;;7.18;100.00
48968;BME280;46511;53.148;8.204;2023-12-20T03:24:50;100988.88;;;7.27;100.00
48968;BME280;46511;53.148;8.204;2023-12-20T03:27:21;100982.06;;;7.43;100.00
48968;BME280;46511;53.148;8.204;2023-12-20T03:29:47;100972.69;;;7.56;100.00
48968;BME280;46511;53.148;8.204;2023-12-20T03:32:18;100979.00;;;7.32;100.00
48968;BME280;46511;53.148;8.204;2023-12-20T03:34:45;100974.06;;;7.23;100.00
48968;BME280;46511;53.148;8.204;2023-12-20T03:37:11;100980.59;;;7.36;100.00
48968;BME280;46511;53.148;8.204;2023-12-20T03:39:38;100970.50;;;7.45;100.00
48968;BME280;46511;53.148;8.204;2023-12-20T03:42:09;100970.63;;;7.42;100.00
48968;BME280;46511;53.148;8.204;2023-12-20T03:44:38;100965.69;;;7.55;100.00
48968;BME280;46511;53.148;8.204;2023-12-20T03:47:09;100958.56;;;7.57;100.00
48968;BME280;46511;53.148;8.204;2023-12-20T03:49:41;100957.09;;;7.50;100.00
48968;BME280;46511;53.148;8.204;2023-12-20T03:52:12;100957.97;;;7.51;100.00
48968;BME280;46511;53.148;8.204;2023-12-20T03:54:43;100944.31;;;7.18;100.00
48968;BME280;46511;53.148;8.204;2023-12-20T03:57:15;100942.41;;;7.43;100.00
48968;BME280;46511;53.148;8.204;2023-12-20T03:59:46;100945.47;;;7.54;100.00
48968;BME280;46511;53.148;8.204;2023-12-20T04:02:18;100937.78;;;7.48;100.00
48968;BME280;46511;53.148;8.204;2023-12-20T04:04:44;100933.63;;;7.42;100.00
48968;BME280;46511;53.148;8.204;2023-12-20T04:07:11;100941.31;;;7.49;100.00
48968;BME280;46511;53.148;8.204;2023-12-20T04:09:42;100929.56;;;7.34;100.00
48968;BME280;46511;53.148;8.204;2023-12-20T04:12:13;100919.13;;;7.09;100.00
48968;BME280;46511;53.148;8.204;2023-12-20T04:14:40;100921.50;;;7.37;100.00
48968;BME280;46511;53.148;8.204;2023-12-20T04:17:06;100913.84;;;7.31;100.00
48968;BME280;46511;53.148;8.204;2023-12-20T04:19:37;100921.81;;;7.51;100.00
48968;BME280;46511;53.148;8.204;2023-12-20T04:22:13;100926.53;;;7.23;100.00
48968;BME280;46511;53.148;8.204;2023-12-20T04:25:05;100930.81;;;7.25;100.00
48968;BME280;46511;53.148;8.204;2023-12-20T04:27:58;100938.06;;;7.42;100.00
48968;BME280;46511;53.148;8.204;2023-12-20T04:30:24;100926.50;;;7.44;100.00
48968;BME280;46511;53.148;8.204;2023-12-20T04:32:54;100934.72;;;7.37;100.00
48968;BME280;46511;53.148;8.204;2023-12-20T04:35:20;100926.72;;;7.38;100.00
48968;BME280;46511;53.148;8.204;2023-12-20T04:37:47;100934.34;;;7.46;100.00
48968;BME280;46511;53.148;8.204;2023-12-20T04:40:20;100935.94;;;7.30;100.00
48968;BME280;46511;53.148;8.204;2023-12-20T04:42:47;100935.78;;;7.75;100.00
48968;BME280;46511;53.148;8.204;2023-12-20T04:45:14;100931.09;;;7.61;100.00
48968;BME280;46511;53.148;8.204;2023-12-20T04:47:46;100929.06;;;7.46;100.00
48968;BME280;46511;53.148;8.204;2023-12-20T04:50:13;100921.28;;;7.84;100.00
48968;BME280;46511;53.148;8.204;2023-12-20T04:52:40;100925.50;;;7.67;100.00
48968;BME280;46511;53.148;8.204;2023-12-20T04:55:07;100930.63;;;7.72;100.00
48968;BME280;46511;53.148;8.204;2023-12-20T04:57:35;100916.13;;;8.01;100.00
48968;BME280;46511;53.148;8.204;2023-12-20T05:00:06;100909.94;;;7.61;100.00
48968;BME280;46511;53.148;8.204;2023-12-20T05:02:38;100908.13;;;7.41;100.00
48968;BME280;46511;53.148;8.204;2023-12-20T05:05:07;100920.34;;;7.44;100.00
48968;BME280;46511;53.148;8.204;2023-12-20T05:07:34;100917.47;;;7.50;100.00
48968;BME280;46511;53.148;8.204;2023-12-20T05:10:00;100908.88;;;7.65;100.00
48968;BME280;46511;53.148;8.204;2023-12-20T05:12:27;100904.50;;;7.85;100.00
48968;BME280;46511;53.148;8.204;2023-12-20T05:14:54;100895.63;;;7.65;100.00
48968;BME280;46511;53.148;8.204;2023-12-20T05:17:23;100900.94;;;7.65;100.00
48968;BME280;46511;53.148;8.204;2023-12-20T05:19:52;100903.84;;;7.59;100.00
48968;BME280;46511;53.148;8.204;2023-12-20T05:22:20;100892.06;;;7.66;100.00
48968;BME280;46511;53.148;8.204;2023-12-20T05:24:47;100903.31;;;7.71;100.00
48968;BME280;46511;53.148;8.204;2023-12-20T05:27:14;100910.31;;;7.72;100.00
48968;BME280;46511;53.148;8.204;2023-12-20T05:29:40;100899.34;;;7.61;100.00
48968;BME280;46511;53.148;8.204;2023-12-20T05:32:06;100902.66;;;7.87;100.00
48968;BME280;46511;53.148;8.204;2023-12-20T05:34:33;100892.34;;;7.81;100.00
48968;BME280;46511;53.148;8.204;2023-12-20T05:37:04;100888.78;;;7.82;100.00
48968;BME280;46511;53.148;8.204;2023-12-20T05:39:31;100881.25;;;7.72;100.00
48968;BME280;46511;53.148;8.204;2023-12-20T05:41:57;100889.16;;;7.72;100.00
48968;BME280;46511;53.148;8.204;2023-12-20T05:44:25;100893.66;;;7.91;100.00
48968;BME280;46511;53.148;8.204;2023-12-20T05:46:52;100905.69;;;7.98;100.00
48968;BME280;46511;53.148;8.204;2023-12-20T05:49:18;100897.50;;;7.84;100.00
48968;BME280;46511;53.148;8.204;2023-12-20T05:51:45;100886.91;;;7.84;100.00
48968;BME280;46511;53.148;8.204;2023-12-20T05:54:11;100890.50;;;7.83;100.00
48968;BME280;46511;53.148;8.204;2023-12-20T05:56:38;100893.84;;;7.86;100.00
48968;BME280;46511;53.148;8.204;2023-12-20T05:59:04;100881.06;;;7.77;100.00
48968;BME280;46511;53.148;8.204;2023-12-20T06:01:31;100886.50;;;7.93;100.00
48968;BME280;46511;53.148;8.204;2023-12-20T06:03:57;100879.06;;;7.82;100.00
48968;BME280;46511;53.148;8.204;2023-12-20T06:06:23;100881.50;;;7.66;100.00
48968;BME280;46511;53.148;8.204;2023-12-20T06:08:50;100885.41;;;7.98;100.00
48968;BME280;46511;53.148;8.204;2023-12-20T06:11:16;100870.28;;;7.61;100.00
48968;BME280;46511;53.148;8.204;2023-12-20T06:13:46;100882.00;;;7.95;100.00
48968;BME280;46511;53.148;8.204;2023-12-20T06:16:18;100873.22;;;7.94;100.00
48968;BME280;46511;53.148;8.204;2023-12-20T06:18:45;100868.31;;;7.85;100.00
48968;BME280;46511;53.148;8.204;2023-12-20T06:21:11;100861.25;;;8.06;100.00
48968;BME280;46511;53.148;8.204;2023-12-20T06:23:40;100850.38;;;8.12;100.00
48968;BME280;46511;53.148;8.204;2023-12-20T06:26:07;100855.50;;;7.96;100.00
48968;BME280;46511;53.148;8.204;2023-12-20T06:28:45;100857.94;;;8.01;100.00
48968;BME280;46511;53.148;8.204;2023-12-20T06:31:14;100860.00;;;7.94;100.00
48968;BME280;46511;53.148;8.204;2023-12-20T06:33:43;100845.13;;;7.92;100.00
48968;BME280;46511;53.148;8.204;2023-12-20T06:36:13;100846.97;;;7.90;100.00
48968;BME280;46511;53.148;8.204;2023-12-20T06:39:05;100843.66;;;7.85;100.00
48968;BME280;46511;53.148;8.204;2023-12-20T06:41:35;100837.66;;;7.81;100.00
48968;BME280;46511;53.148;8.204;2023-12-20T06:44:01;100841.91;;;8.04;100.00
48968;BME280;46511;53.148;8.204;2023-12-20T06:46:28;100836.34;;;7.91;100.00
48968;BME280;46511;53.148;8.204;2023-12-20T06:48:59;100838.50;;;8.02;100.00
48968;BME280;46511;53.148;8.204;2023-12-20T06:51:28;100822.19;;;7.92;100.00
48968;BME280;46511;53.148;8.204;2023-12-20T06:53:54;100834.66;;;8.09;100.00
48968;BME280;46511;53.148;8.204;2023-12-20T06:56:20;100828.19;;;8.34;100.00
48968;BME280;46511;53.148;8.204;2023-12-20T06:58:47;100823.53;;;8.01;100.00
48968;BME280;46511;53.148;8.204;2023-12-20T07:01:14;100827.91;;;8.02;100.00
48968;BME280;46511;53.148;8.204;2023-12-20T07:03:44;100826.03;;;8.04;100.00
48968;BME280;46511;53.148;8.204;2023-12-20T07:06:15;100824.19;;;7.87;100.00
48968;BME280;46511;53.148;8.204;2023-12-20T07:08:43;100828.75;;;8.02;100.00
48968;BME280;46511;53.148;8.204;2023-12-20T07:11:09;100823.97;;;8.11;100.00
48968;BME280;46511;53.148;8.204;2023-12-20T07:13:38;100831.50;;;8.20;100.00
48968;BME280;46511;53.148;8.204;2023-12-20T07:16:08;100813.63;;;8.06;100.00
48968;BME280;46511;53.148;8.204;2023-12-20T07:18:39;100828.34;;;8.12;100.00
48968;BME280;46511;53.148;8.204;2023-12-20T07:21:16;100821.00;;;8.18;100.00
48968;BME280;46511;53.148;8.204;2023-12-20T07:24:04;100810.47;;;7.98;100.00
48968;BME280;46511;53.148;8.204;2023-12-20T07:26:46;100803.81;;;8.08;100.00
48968;BME280;46511;53.148;8.204;2023-12-20T07:29:42;100808.09;;;7.92;100.00
48968;BME280;46511;53.148;8.204;2023-12-20T07:32:20;100796.00;;;8.05;100.00
48968;BME280;46511;53.148;8.204;2023-12-20T07:34:53;100792.59;;;8.22;100.00
48968;BME280;46511;53.148;8.204;2023-12-20T07:37:50;100811.47;;;8.14;100.00
48968;BME280;46511;53.148;8.204;2023-12-20T07:40:21;100804.03;;;8.03;100.00
48968;BME280;46511;53.148;8.204;2023-12-20T07:42:53;100798.84;;;8.40;100.00
48968;BME280;46511;53.148;8.204;2023-12-20T07:45:24;100791.09;;;8.16;100.00
48968;BME280;46511;53.148;8.204;2023-12-20T07:48:00;100809.19;;;8.25;100.00
48968;BME280;46511;53.148;8.204;2023-12-20T07:50:26;100791.31;;;8.30;100.00
48968;BME280;46511;53.148;8.204;2023-12-20T07:52:56;100778.25;;;8.46;100.00
48968;BME280;46511;53.148;8.204;2023-12-20T07:58:32;100788.56;;;8.32;100.00
48968;BME280;46511;53.148;8.204;2023-12-20T08:01:08;100777.13;;;8.31;100.00
48968;BME280;46511;53.148;8.204;2023-12-20T08:04:17;100794.69;;;8.34;100.00
48968;BME280;46511;53.148;8.204;2023-12-20T08:06:46;100797.38;;;8.32;100.00
48968;BME280;46511;53.148;8.204;2023-12-20T08:09:13;100792.09;;;8.51;100.00
48968;BME280;46511;53.148;8.204;2023-12-20T08:11:48;100782.00;;;8.22;100.00
48968;BME280;46511;53.148;8.204;2023-12-20T08:17:16;100788.66;;;8.30;100.00
48968;BME280;46511;53.148;8.204;2023-12-20T08:19:56;100770.38;;;8.45;100.00
48968;BME280;46511;53.148;8.204;2023-12-20T08:23:02;100777.13;;;8.31;100.00
48968;BME280;46511;53.148;8.204;2023-12-20T08:25:33;100768.56;;;8.64;100.00
48968;BME280;46511;53.148;8.204;2023-12-20T08:28:00;100753.88;;;8.57;100.00
48968;BME280;46511;53.148;8.204;2023-12-20T08:30:29;100762.56;;;8.42;100.00
48968;BME280;46511;53.148;8.204;2023-12-20T08:33:01;100757.47;;;8.56;100.00
48968;BME280;46511;53.148;8.204;2023-12-20T08:35:33;100764.16;;;8.46;100.00
48968;BME280;46511;53.148;8.204;2023-12-20T08:37:59;100765.16;;;8.24;100.00
48968;BME280;46511;53.148;8.204;2023-12-20T08:40:31;100769.28;;;8.30;100.00
48968;BME280;46511;53.148;8.204;2023-12-20T08:42:57;100764.28;;;8.43;100.00
48968;BME280;46511;53.148;8.204;2023-12-20T08:45:24;100762.94;;;8.15;100.00
48968;BME280;46511;53.148;8.204;2023-12-20T08:47:50;100771.16;;;8.09;100.00
48968;BME280;46511;53.148;8.204;2023-12-20T08:50:17;100754.59;;;8.23;100.00
48968;BME280;46511;53.148;8.204;2023-12-20T08:52:44;100764.13;;;8.27;100.00
48968;BME280;46511;53.148;8.204;2023-12-20T08:55:10;100770.50;;;8.42;100.00
48968;BME280;46511;53.148;8.204;2023-12-20T08:57:37;100752.06;;;8.76;100.00
48968;BME280;46511;53.148;8.204;2023-12-20T09:00:03;100748.81;;;8.52;100.00
48968;BME280;46511;53.148;8.204;2023-12-20T09:02:35;100752.81;;;8.42;100.00
48968;BME280;46511;53.148;8.204;2023-12-20T09:05:05;100743.91;;;8.62;100.00
48968;BME280;46511;53.148;8.204;2023-12-20T09:07:31;100737.47;;;8.68;100.00
48968;BME280;46511;53.148;8.204;2023-12-20T09:09:58;100739.44;;;8.81;100.00
48968;BME280;46511;53.148;8.204;2023-12-20T09:12:25;100720.88;;;8.99;100.00
48968;BME280;46511;53.148;8.204;2023-12-20T09:14:51;100750.75;;;8.85;100.00
48968;BME280;46511;53.148;8.204;2023-12-20T09:17:24;100741.31;;;8.97;100.00
48968;BME280;46511;53.148;8.204;2023-12-20T09:19:55;100810.50;;;8.54;100.00
48968;BME280;46511;53.148;8.204;2023-12-20T09:22:27;100836.47;;;7.88;100.00
48968;BME280;46511;53.148;8.204;2023-12-20T09:24:58;100832.69;;;6.92;100.00
48968;BME280;46511;53.148;8.204;2023-12-20T09:27:30;100839.72;;;6.92;100.00
48968;BME280;46511;53.148;8.204;2023-12-20T09:29:56;100850.25;;;6.93;100.00
48968;BME280;46511;53.148;8.204;2023-12-20T09:32:23;100842.03;;;6.99;100.00
48968;BME280;46511;53.148;8.204;2023-12-20T09:34:54;100853.44;;;7.01;100.00
48968;BME280;46511;53.148;8.204;2023-12-20T09:37:26;100843.34;;;6.67;100.00
48968;BME280;46511;53.148;8.204;2023-12-20T09:39:53;100858.19;;;6.70;100.00
48968;BME280;46511;53.148;8.204;2023-12-20T09:42:34;100860.06;;;6.68;100.00
48968;BME280;46511;53.148;8.204;2023-12-20T09:45:08;100858.59;;;6.82;100.00
48968;BME280;46511;53.148;8.204;2023-12-20T09:47:35;100850.09;;;6.96;100.00
48968;BME280;46511;53.148;8.204;2023-12-20T09:50:02;100847.78;;;6.67;100.00
48968;BME280;46511;53.148;8.204;2023-12-20T09:52:29;100859.94;;;6.93;100.00
48968;BME280;46511;53.148;8.204;2023-12-20T09:54:56;100822.91;;;6.94;100.00
48968;BME280;46511;53.148;8.204;2023-12-20T09:57:28;100823.00;;;6.91;100.00
48968;BME280;46511;53.148;8.204;2023-12-20T09:59:54;100829.91;;;6.73;100.00
48968;BME280;46511;53.148;8.204;2023-12-20T10:02:21;100841.63;;;6.88;100.00
48968;BME280;46511;53.148;8.204;2023-12-20T10:04:52;100832.91;;;6.86;100.00
48968;BME280;46511;53.148;8.204;2023-12-20T10:07:20;100841.00;;;7.03;100.00
48968;BME280;46511;53.148;8.204;2023-12-20T10:09:48;100842.06;;;7.20;100.00
48968;BME280;46511;53.148;8.204;2023-12-20T10:12:19;100841.91;;;7.44;100.00
48968;BME280;46511;53.148;8.204;2023-12-20T10:14:46;100855.13;;;7.44;100.00
48968;BME280;46511;53.148;8.204;2023-12-20T10:17:17;100851.88;;;7.38;100.00
48968;BME280;46511;53.148;8.204;2023-12-20T10:19:49;100859.84;;;7.58;100.00
48968;BME280;46511;53.148;8.204;2023-12-20T10:22:21;100858.59;;;7.86;100.00
48968;BME280;46511;53.148;8.204;2023-12-20T10:24:52;100869.69;;;8.33;100.00
48968;BME280;46511;53.148;8.204;2023-12-20T10:27:24;100865.88;;;8.40;100.00
48968;BME280;46511;53.148;8.204;2023-12-20T10:29:51;100867.63;;;8.96;100.00
48968;BME280;46511;53.148;8.204;2023-12-20T10:32:21;100850.09;;;8.18;100.00
48968;BME280;46511;53.148;8.204;2023-12-20T10:34:57;100847.78;;;9.05;100.00
48968;BME280;46511;53.148;8.204;2023-12-20T10:37:25;100839.56;;;10.92;100.00
48968;BME280;46511;53.148;8.204;2023-12-20T10:39:56;100822.03;;;13.70;100.00
48968;BME280;46511;53.148;8.204;2023-12-20T10:42:32;100827.91;;;14.13;100.00
48968;BME280;46511;53.148;8.204;2023-12-20T10:45:07;100821.78;;;15.56;100.00
48968;BME280;46511;53.148;8.204;2023-12-20T10:47:33;100823.81;;;16.55;100.00
48968;BME280;46511;53.148;8.204;2023-12-20T10:50:07;100818.41;;;14.58;100.00
48968;BME280;46511;53.148;8.204;2023-12-20T10:52:39;100826.47;;;14.33;100.00
48968;BME280;46511;53.148;8.204;2023-12-20T10:55:12;100812.75;;;15.46;100.00
48968;BME280;46511;53.148;8.204;2023-12-20T10:57:43;100810.53;;;15.75;100.00
48968;BME280;46511;53.148;8.204;2023-12-20T11:00:21;100802.47;;;15.29;100.00
48968;BME280;46511;53.148;8.204;2023-12-20T11:02:54;100790.34;;;16.93;100.00
48968;BME280;46511;53.148;8.204;2023-12-20T11:05:39;100806.41;;;16.16;100.00
48968;BME280;46511;53.148;8.204;2023-12-20T11:08:28;100786.38;;;15.18;100.00
48968;BME280;46511;53.148;8.204;2023-12-20T11:11:21;100802.44;;;13.04;100.00
48968;BME280;46511;53.148;8.204;2023-12-20T11:13:58;100806.56;;;12.27;100.00
48968;BME280;46511;53.148;8.204;2023-12-20T11:16:37;100803.63;;;12.73;100.00
48968;BME280;46511;53.148;8.204;2023-12-20T11:19:09;100798.69;;;12.26;100.00
48968;BME280;46511;53.148;8.204;2023-12-20T11:21:42;100794.81;;;11.89;100.00
48968;BME280;46511;53.148;8.204;2023-12-20T11:24:09;100789.75;;;10.96;100.00
48968;BME280;46511;53.148;8.204;2023-12-20T11:26:41;100781.41;;;11.46;100.00
48968;BME280;46511;53.148;8.204;2023-12-20T11:32:00;100793.44;;;10.93;100.00
48968;BME280;46511;53.148;8.204;2023-12-20T11:34:28;100791.66;;;10.78;100.00
48968;BME280;46511;53.148;8.204;2023-12-20T11:37:02;100789.00;;;10.78;100.00
48968;BME280;46511;53.148;8.204;2023-12-20T11:39:33;100789.50;;;10.84;100.00
48968;BME280;46511;53.148;8.204;2023-12-20T11:42:05;100779.75;;;10.85;100.00
48968;BME280;46511;53.148;8.204;2023-12-20T11:44:32;100788.69;;;10.98;100.00
48968;BME280;46511;53.148;8.204;2023-12-20T11:46:59;100797.19;;;10.89;100.00
48968;BME280;46511;53.148;8.204;2023-12-20T11:49:30;100783.56;;;11.25;100.00
48968;BME280;46511;53.148;8.204;2023-12-20T11:51:57;100772.72;;;10.68;100.00
48968;BME280;46511;53.148;8.204;2023-12-20T11:54:23;100783.53;;;10.81;100.00
48968;BME280;46511;53.148;8.204;2023-12-20T11:56:49;100777.31;;;10.96;100.00
48968;BME280;46511;53.148;8.204;2023-12-20T11:59:21;100770.72;;;11.48;100.00
48968;BME280;46511;53.148;8.204;2023-12-20T12:01:48;100775.63;;;11.54;100.00
48968;BME280;46511;53.148;8.204;2023-12-20T12:04:20;100773.41;;;11.76;100.00
48968;BME280;46511;53.148;8.204;2023-12-20T12:06:47;100768.94;;;11.91;100.00
48968;BME280;46511;53.148;8.204;2023-12-20T12:09:13;100777.28;;;12.27;100.00
48968;BME280;46511;53.148;8.204;2023-12-20T12:11:41;100780.19;;;11.96;100.00
48968;BME280;46511;53.148;8.204;2023-12-20T12:14:13;100773.13;;;11.81;100.00
48968;BME280;46511;53.148;8.204;2023-12-20T12:16:46;100773.00;;;12.11;100.00
48968;BME280;46511;53.148;8.204;2023-12-20T12:19:20;100778.03;;;12.29;100.00
48968;BME280;46511;53.148;8.204;2023-12-20T12:22:05;100771.44;;;12.76;100.00
48968;BME280;46511;53.148;8.204;2023-12-20T12:24:44;100767.03;;;11.79;100.00
48968;BME280;46511;53.148;8.204;2023-12-20T12:27:15;100769.59;;;11.22;100.00
48968;BME280;46511;53.148;8.204;2023-12-20T12:30:01;100783.44;;;11.12;100.00
48968;BME280;46511;53.148;8.204;2023-12-20T12:32:35;100797.16;;;9.94;100.00
48968;BME280;46511;53.148;8.204;2023-12-20T12:35:07;100785.88;;;9.06;100.00
48968;BME280;46511;53.148;8.204;2023-12-20T12:37:40;100788.19;;;8.77;100.00
48968;BME280;46511;53.148;8.204;2023-12-20T12:40:10;100804.25;;;8.74;100.00
48968;BME280;46511;53.148;8.204;2023-12-20T12:42:39;100795.28;;;8.77;100.00
48968;BME280;46511;53.148;8.204;2023-12-20T12:45:12;100800.00;;;8.70;100.00
48968;BME280;46511;53.148;8.204;2023-12-20T12:47:39;100782.28;;;8.72;100.00
48968;BME280;46511;53.148;8.204;2023-12-20T12:50:06;100781.84;;;8.81;100.00
48968;BME280;46511;53.148;8.204;2023-12-20T12:52:33;100785.25;;;8.83;100.00
48968;BME280;46511;53.148;8.204;2023-12-20T12:55:04;100784.81;;;8.93;100.00
48968;BME280;46511;53.148;8.204;2023-12-20T12:57:36;100787.13;;;9.16;100.00
48968;BME280;46511;53.148;8.204;2023-12-20T13:00:03;100780.41;;;9.61;100.00
48968;BME280;46511;53.148;8.204;2023-12-20T13:02:29;100763.44;;;10.45;100.00
48968;BME280;46511;53.148;8.204;2023-12-20T13:05:01;100762.50;;;9.97;100.00
48968;BME280;46511;53.148;8.204;2023-12-20T13:07:28;100760.41;;;10.67;100.00
48968;BME280;46511;53.148;8.204;2023-12-20T13:10:00;100773.97;;;9.65;100.00
48968;BME280;46511;53.148;8.204;2023-12-20T13:12:26;100775.88;;;9.63;100.00